createdAt,value
2022-11-17T00:01:25.597Z,97017.19
2022-11-17T00:03:54.673Z,97006.53
2022-11-17T00:06:22.453Z,96997.41
2022-11-17T00:08:50.243Z,96979.28
2022-11-17T00:11:18.036Z,96968.22
2022-11-17T00:14:03.632Z,96968.16
2022-11-17T00:16:31.401Z,96961.09
2022-11-17T00:19:17.963Z,96957.19
2022-11-17T00:21:45.746Z,96954.47
2022-11-17T00:24:17.495Z,96941.16
2022-11-17T00:26:59.094Z,96950.16
2022-11-17T00:29:26.828Z,96968.97
2022-11-17T00:32:12.014Z,96968.97
2022-11-17T00:34:41.189Z,96970.53
2022-11-17T00:37:10.192Z,96966.63
2022-11-17T00:39:38.271Z,96979.97
2022-11-17T00:42:06.199Z,96975.19
2022-11-17T00:44:33.930Z,96968.97
2022-11-17T00:47:01.594Z,96966.13
2022-11-17T00:49:29.261Z,96960.94
2022-11-17T00:51:58.519Z,96953.75
2022-11-17T00:54:26.345Z,96942.69
2022-11-17T00:56:54.112Z,96938.25
2022-11-17T00:59:21.908Z,96945.72
2022-11-17T01:01:50.269Z,96936.47
2022-11-17T01:04:17.989Z,96934.41
2022-11-17T01:06:47.654Z,96926.25
2022-11-17T01:09:18.320Z,96911.44
2022-11-17T01:11:46.701Z,96909.03
2022-11-17T01:14:16.609Z,96897.19
2022-11-17T01:16:44.739Z,96899.53
2022-11-17T01:19:13.993Z,96893.88
2022-11-17T01:21:41.690Z,96887.25
2022-11-17T01:24:12.161Z,96877.69
2022-11-17T01:26:42.032Z,96875.09
2022-11-17T01:29:12.925Z,96883.75
2022-11-17T01:31:43.423Z,96881.84
2022-11-17T01:34:11.526Z,96873.63
2022-11-17T01:36:55.259Z,96870.88
2022-11-17T01:39:23.034Z,96871.28
2022-11-17T01:41:52.746Z,96852.44
2022-11-17T01:45:00.152Z,96854.41
2022-11-17T01:47:34.364Z,96851.22
2022-11-17T01:50:07.864Z,96848.88
2022-11-17T01:52:37.185Z,96853.25
2022-11-17T01:55:07.720Z,96847.78
2022-11-17T01:57:40.695Z,96844.97
2022-11-17T02:00:11.259Z,96841.13
2022-11-17T02:02:40.832Z,96832.38
2022-11-17T02:05:19.528Z,96823.69
2022-11-17T02:07:48.382Z,96809.16
2022-11-17T02:10:16.701Z,96796.19
2022-11-17T02:12:46.749Z,96776.31
2022-11-17T02:15:14.801Z,96777.81
2022-11-17T02:17:44.081Z,96778.28
2022-11-17T02:20:15.850Z,96773.50
2022-11-17T02:23:04.624Z,96771.75
2022-11-17T02:26:05.106Z,96760.84
2022-11-17T02:28:37.042Z,96763.97
2022-11-17T02:31:19.826Z,96755.06
2022-11-17T02:33:55.687Z,96757.75
2022-11-17T02:36:32.335Z,96744.34
2022-11-17T02:39:10.285Z,96750.78
2022-11-17T02:41:46.409Z,96741.44
2022-11-17T02:44:21.757Z,96717.97
2022-11-17T02:46:54.658Z,96710.22
2022-11-17T02:49:26.392Z,96706.00
2022-11-17T02:51:56.347Z,96705.09
2022-11-17T02:54:27.980Z,96703.75
2022-11-17T02:56:55.940Z,96707.47
2022-11-17T02:59:29.001Z,96722.34
2022-11-17T03:02:20.090Z,96719.97
2022-11-17T03:04:58.600Z,96720.78
2022-11-17T03:07:40.996Z,96719.31
2022-11-17T03:10:15.462Z,96728.28
2022-11-17T03:12:47.757Z,96739.50
2022-11-17T03:15:25.304Z,96753.03
2022-11-17T03:18:01.986Z,96755.97
2022-11-17T03:20:35.749Z,96764.88
2022-11-17T03:23:09.824Z,96754.72
2022-11-17T03:25:43.422Z,96758.47
2022-11-17T03:28:13.359Z,96750.53
2022-11-17T03:30:46.517Z,96734.34
2022-11-17T03:33:18.932Z,96702.19
2022-11-17T03:35:51.293Z,96711.72
2022-11-17T03:38:24.181Z,96700.84
2022-11-17T03:40:55.405Z,96710.38
2022-11-17T03:43:25.428Z,96716.00
2022-11-17T03:45:57.160Z,96712.28
2022-11-17T03:48:30.318Z,96702.78
2022-11-17T03:51:04.579Z,96702.69
2022-11-17T03:53:33.141Z,96699.06
2022-11-17T03:56:10.148Z,96697.84
2022-11-17T03:58:44.902Z,96693.88
2022-11-17T04:01:15.407Z,96688.81
2022-11-17T04:03:43.185Z,96693.19
2022-11-17T04:06:10.977Z,96696.09
2022-11-17T04:08:38.686Z,96697.31
2022-11-17T04:11:24.330Z,96705.88
2022-11-17T04:14:09.701Z,96707.81
2022-11-17T04:16:38.786Z,96700.47
2022-11-17T04:19:06.543Z,96702.66
2022-11-17T04:21:34.191Z,96699.03
2022-11-17T04:24:02.001Z,96708.84
2022-11-17T04:26:47.271Z,96722.25
2022-11-17T04:29:14.979Z,96720.06
2022-11-17T04:31:44.185Z,96715.69
2022-11-17T04:34:11.968Z,96716.28
2022-11-17T04:36:44.275Z,96707.69
2022-11-17T04:39:13.378Z,96700.56
2022-11-17T04:42:01.860Z,96698.81
2022-11-17T04:44:31.165Z,96694.88
2022-11-17T04:47:03.093Z,96694.31
2022-11-17T04:49:32.677Z,96697.06
2022-11-17T04:52:00.810Z,96696.84
2022-11-17T04:54:28.562Z,96697.41
2022-11-17T04:56:56.632Z,96702.50
2022-11-17T04:59:24.396Z,96718.56
2022-11-17T05:01:54.431Z,96722.34
2022-11-17T05:04:41.035Z,96718.28
2022-11-17T05:07:09.754Z,96712.84
2022-11-17T05:09:37.559Z,96706.34
2022-11-17T05:12:23.004Z,96718.91
2022-11-17T05:14:50.767Z,96714.16
2022-11-17T05:17:17.641Z,96708.41
2022-11-17T05:19:48.326Z,96705.66
2022-11-17T05:22:36.104Z,96690.13
2022-11-17T05:25:04.914Z,96700.38
2022-11-17T05:27:33.778Z,96708.84
2022-11-17T05:30:01.621Z,96705.25
2022-11-17T05:32:29.341Z,96703.53
2022-11-17T05:34:58.378Z,96694.97
2022-11-17T05:37:26.203Z,96690.06
2022-11-17T05:39:53.896Z,96695.09
2022-11-17T05:42:21.770Z,96698.56
2022-11-17T05:44:49.596Z,96701.06
2022-11-17T05:47:17.371Z,96700.78
2022-11-17T05:49:45.130Z,96709.91
2022-11-17T05:52:14.231Z,96700.19
2022-11-17T05:54:41.941Z,96698.97
2022-11-17T05:57:15.436Z,96690.19
2022-11-17T05:59:47.167Z,96688.38
2022-11-17T06:02:18.362Z,96686.06
2022-11-17T06:04:46.405Z,96688.44
2022-11-17T06:07:17.734Z,96688.09
2022-11-17T06:09:46.982Z,96696.13
2022-11-17T06:12:15.242Z,96687.19
2022-11-17T06:14:43.060Z,96695.31
2022-11-17T06:17:22.117Z,96691.50
2022-11-17T06:19:56.204Z,96693.59
2022-11-17T06:22:26.382Z,96704.81
2022-11-17T06:24:55.170Z,96702.66
2022-11-17T06:27:23.446Z,96702.66
2022-11-17T06:29:51.234Z,96701.78
2022-11-17T06:32:20.767Z,96711.03
2022-11-17T06:34:55.705Z,96718.69
2022-11-17T06:37:25.495Z,96716.81
2022-11-17T06:39:53.471Z,96721.03
2022-11-17T06:42:41.201Z,96734.94
2022-11-17T06:45:10.137Z,96744.44
2022-11-17T06:47:38.025Z,96737.03
2022-11-17T06:50:06.138Z,96733.34
2022-11-17T06:52:35.204Z,96720.69
2022-11-17T06:55:02.933Z,96709.72
2022-11-17T06:57:30.833Z,96704.16
2022-11-17T06:59:58.645Z,96697.28
2022-11-17T07:02:27.258Z,96681.78
2022-11-17T07:04:55.060Z,96670.38
2022-11-17T07:07:22.919Z,96694.84
2022-11-17T07:09:52.168Z,96697.19
2022-11-17T07:12:19.993Z,96699.63
2022-11-17T07:14:48.072Z,96709.72
2022-11-17T07:17:15.984Z,96697.28
2022-11-17T07:19:43.711Z,96694.31
2022-11-17T07:22:11.587Z,96693.00
2022-11-17T07:24:39.330Z,96691.69
2022-11-17T07:27:08.484Z,96704.50
2022-11-17T07:29:36.372Z,96700.56
2022-11-17T07:32:04.444Z,96694.25
2022-11-17T07:34:32.253Z,96704.97
2022-11-17T07:37:00.134Z,96699.16
2022-11-17T07:39:27.919Z,96715.81
2022-11-17T07:41:57.516Z,96711.56
2022-11-17T07:44:26.776Z,96711.09
2022-11-17T07:46:55.318Z,96698.53
2022-11-17T07:49:23.273Z,96704.53
2022-11-17T07:51:51.042Z,96696.44
2022-11-17T07:54:19.119Z,96700.03
2022-11-17T07:56:47.025Z,96695.75
2022-11-17T07:59:18.578Z,96683.31
2022-11-17T08:01:50.472Z,96687.25
2022-11-17T08:04:18.593Z,96694.13
2022-11-17T08:06:46.432Z,96689.81
2022-11-17T08:09:15.788Z,96700.16
2022-11-17T08:11:44.063Z,96705.00
2022-11-17T08:14:12.094Z,96706.06
2022-11-17T08:16:39.956Z,96705.69
2022-11-17T08:19:11.934Z,96706.28
2022-11-17T08:21:41.144Z,96703.28
2022-11-17T08:24:09.389Z,96703.06
2022-11-17T08:26:37.244Z,96702.19
2022-11-17T08:29:05.196Z,96698.28
2022-11-17T08:31:33.917Z,96685.53
2022-11-17T08:34:01.653Z,96699.31
2022-11-17T08:36:30.975Z,96701.56
2022-11-17T08:38:58.888Z,96700.06
2022-11-17T08:41:26.732Z,96701.28
2022-11-17T08:43:54.503Z,96697.00
2022-11-17T08:46:22.437Z,96697.28
2022-11-17T08:48:55.486Z,96699.31
2022-11-17T08:51:24.982Z,96698.91
2022-11-17T08:53:54.133Z,96705.25
2022-11-17T08:56:22.100Z,96707.63
2022-11-17T08:58:49.919Z,96702.31
2022-11-17T09:01:18.127Z,96708.22
2022-11-17T09:03:47.721Z,96712.56
2022-11-17T09:06:16.722Z,96714.44
2022-11-17T09:08:46.712Z,96712.50
2022-11-17T09:11:25.573Z,96722.69
2022-11-17T09:13:53.292Z,96724.06
2022-11-17T09:16:21.057Z,96730.25
2022-11-17T09:18:48.812Z,96733.91
2022-11-17T09:21:17.108Z,96733.22
2022-11-17T09:23:45.048Z,96733.47
2022-11-17T09:26:15.355Z,96743.72
2022-11-17T09:28:45.242Z,96743.28
2022-11-17T09:31:15.286Z,96737.59
2022-11-17T09:33:43.704Z,96743.97
2022-11-17T09:36:11.965Z,96745.00
2022-11-17T09:38:40.814Z,96746.31
2022-11-17T09:41:27.404Z,96744.97
2022-11-17T09:44:05.150Z,96749.81
2022-11-17T09:46:42.623Z,96759.06
2022-11-17T09:49:18.481Z,96767.03
2022-11-17T09:51:49.474Z,96767.59
2022-11-17T09:54:23.081Z,96769.84
2022-11-17T09:56:52.231Z,96763.69
2022-11-17T09:59:27.071Z,96759.38
2022-11-17T10:01:55.114Z,96765.72
2022-11-17T10:04:30.712Z,96755.59
2022-11-17T10:06:59.445Z,96756.16
2022-11-17T10:09:36.084Z,96769.16
2022-11-17T10:12:17.317Z,96768.72
2022-11-17T10:14:47.710Z,96770.09
2022-11-17T10:17:15.573Z,96764.13
2022-11-17T10:19:47.240Z,96765.28
2022-11-17T10:22:31.304Z,96763.00
2022-11-17T10:24:59.058Z,96766.22
2022-11-17T10:27:29.806Z,96757.78
2022-11-17T10:30:04.650Z,96753.56
2022-11-17T10:32:35.837Z,96758.34
2022-11-17T10:35:18.373Z,96755.31
2022-11-17T10:37:54.018Z,96748.63
2022-11-17T10:40:25.631Z,96756.63
2022-11-17T10:43:04.775Z,96756.63
2022-11-17T10:45:34.916Z,96739.88
2022-11-17T10:48:11.339Z,96742.31
2022-11-17T10:50:39.092Z,96750.09
2022-11-17T10:53:23.953Z,96752.31
2022-11-17T10:55:57.761Z,96756.00
2022-11-17T10:58:27.159Z,96757.69
2022-11-17T11:00:58.509Z,96759.03
2022-11-17T11:03:30.052Z,96775.25
2022-11-17T11:06:04.522Z,96762.69
2022-11-17T11:08:42.662Z,96755.19
2022-11-17T11:11:19.942Z,96751.16
2022-11-17T11:13:53.171Z,96770.19
2022-11-17T11:16:22.329Z,96747.31
2022-11-17T11:18:51.864Z,96728.56
2022-11-17T11:21:33.837Z,96753.72
2022-11-17T11:24:10.841Z,96745.88
2022-11-17T11:26:48.269Z,96753.66
2022-11-17T11:29:26.280Z,96756.28
2022-11-17T11:32:10.679Z,96765.19
2022-11-17T11:35:05.609Z,96776.13
2022-11-17T11:37:38.670Z,96769.81
2022-11-17T11:40:16.048Z,96763.50
2022-11-17T11:42:56.216Z,96770.22
2022-11-17T11:45:31.018Z,96776.28
2022-11-17T11:48:17.805Z,96768.63
2022-11-17T11:50:58.367Z,96770.88
2022-11-17T11:53:36.062Z,96773.53
2022-11-17T11:56:15.077Z,96784.88
2022-11-17T11:58:48.932Z,96774.75
2022-11-17T12:01:19.762Z,96766.28
2022-11-17T12:03:55.427Z,96776.94
2022-11-17T12:06:42.906Z,96775.50
2022-11-17T12:09:20.679Z,96773.16
2022-11-17T12:12:03.164Z,96776.00
2022-11-17T12:14:32.792Z,96775.19
2022-11-17T12:17:08.371Z,96780.00
2022-11-17T12:19:57.293Z,96785.47
2022-11-17T12:23:06.602Z,96784.31
2022-11-17T12:25:36.935Z,96792.75
2022-11-17T12:28:33.050Z,96776.22
2022-11-17T12:31:06.592Z,96775.28
2022-11-17T12:34:14.892Z,96774.13
2022-11-17T12:36:44.245Z,96773.78
2022-11-17T12:39:41.728Z,96776.06
2022-11-17T12:42:09.533Z,96781.50
2022-11-17T12:45:03.050Z,96775.78
2022-11-17T12:47:33.232Z,96779.94
2022-11-17T12:50:24.086Z,96772.03
2022-11-17T12:53:06.222Z,96768.28
2022-11-17T12:55:49.749Z,96759.91
2022-11-17T12:58:23.912Z,96763.75
2022-11-17T13:00:55.532Z,96775.72
2022-11-17T13:03:29.776Z,96758.50
2022-11-17T13:06:33.867Z,96756.69
2022-11-17T13:08:58.740Z,96762.50
2022-11-17T13:11:27.265Z,96765.38
2022-11-17T13:14:09.437Z,96770.13
2022-11-17T13:16:38.702Z,96764.25
2022-11-17T13:19:38.864Z,96762.97
2022-11-17T13:22:16.147Z,96758.63
2022-11-17T13:24:47.518Z,96756.28
2022-11-17T13:27:23.180Z,96760.03
2022-11-17T13:29:51.290Z,96748.59
2022-11-17T13:32:22.009Z,96755.59
2022-11-17T13:34:52.389Z,96763.03
2022-11-17T13:37:22.725Z,96761.84
2022-11-17T13:40:03.998Z,96764.88
2022-11-17T13:42:34.129Z,96762.13
2022-11-17T13:45:05.368Z,96775.59
2022-11-17T13:47:47.841Z,96773.41
2022-11-17T13:50:34.385Z,96785.59
2022-11-17T13:53:05.254Z,96775.13
2022-11-17T13:55:35.288Z,96781.81
2022-11-17T13:58:06.562Z,96770.38
2022-11-17T14:00:35.538Z,96781.75
2022-11-17T14:03:06.153Z,96791.06
2022-11-17T14:05:35.062Z,96785.53
2022-11-17T14:08:13.605Z,96790.78
2022-11-17T14:10:42.872Z,96776.34
2022-11-17T14:13:28.864Z,96795.84
2022-11-17T14:16:02.270Z,96781.28
2022-11-17T14:18:37.029Z,96787.38
2022-11-17T14:21:13.646Z,96793.19
2022-11-17T14:23:42.397Z,96788.47
2022-11-17T14:26:23.446Z,96782.41
2022-11-17T14:28:52.636Z,96781.13
2022-11-17T14:31:20.847Z,96781.66
2022-11-17T14:33:51.602Z,96778.41
2022-11-17T14:36:19.655Z,96765.16
2022-11-17T14:38:48.277Z,96775.91
2022-11-17T14:41:17.764Z,96783.72
2022-11-17T14:43:47.150Z,96779.81
2022-11-17T14:46:20.994Z,96773.16
2022-11-17T14:48:48.845Z,96778.06
2022-11-17T14:51:17.089Z,96785.81
2022-11-17T14:53:44.939Z,96783.84
2022-11-17T14:56:15.285Z,96773.88
2022-11-17T14:58:43.193Z,96782.50
2022-11-17T15:01:16.423Z,96778.78
2022-11-17T15:03:44.386Z,96780.59
2022-11-17T15:06:19.371Z,96775.50
2022-11-17T15:08:47.652Z,96778.88
2022-11-17T15:11:17.644Z,96779.75
2022-11-17T15:13:45.590Z,96779.34
2022-11-17T15:16:14.883Z,96770.28
2022-11-17T15:18:46.205Z,96763.44
2022-11-17T15:21:14.882Z,96770.03
2022-11-17T15:23:43.902Z,96758.94
2022-11-17T15:26:14.589Z,96763.44
2022-11-17T15:28:43.187Z,96760.88
2022-11-17T15:31:12.642Z,96772.00
2022-11-17T15:33:42.766Z,96767.56
2022-11-17T15:36:13.007Z,96759.72
2022-11-17T15:38:41.539Z,96760.78
2022-11-17T15:41:12.100Z,96769.09
2022-11-17T15:43:41.092Z,96763.72
2022-11-17T15:46:13.262Z,96766.16
2022-11-17T15:48:43.965Z,96771.25
2022-11-17T15:51:13.283Z,96777.19
2022-11-17T15:53:41.860Z,96771.84
2022-11-17T15:56:11.461Z,96776.34
2022-11-17T15:58:40.714Z,96778.59
2022-11-17T16:01:13.176Z,96783.97
2022-11-17T16:03:44.136Z,96777.72
2022-11-17T16:06:12.920Z,96782.56
2022-11-17T16:08:40.953Z,96787.75
2022-11-17T16:11:10.199Z,96783.97
2022-11-17T16:13:38.528Z,96781.03
2022-11-17T16:16:07.424Z,96793.13
2022-11-17T16:18:37.728Z,96787.03
2022-11-17T16:21:09.018Z,96796.38
2022-11-17T16:23:40.883Z,96790.75
2022-11-17T16:26:10.222Z,96780.16
2022-11-17T16:28:38.402Z,96776.81
2022-11-17T16:31:14.382Z,96789.66
2022-11-17T16:33:42.429Z,96794.81
2022-11-17T16:36:11.747Z,96775.16
2022-11-17T16:38:49.752Z,96776.53
2022-11-17T16:41:29.608Z,96783.38
2022-11-17T16:43:57.652Z,96770.81
2022-11-17T16:46:28.746Z,96774.84
2022-11-17T16:48:57.471Z,96778.69
2022-11-17T16:51:26.519Z,96764.25
2022-11-17T16:53:57.651Z,96769.00
2022-11-17T16:56:25.710Z,96770.31
2022-11-17T16:58:54.643Z,96769.72
2022-11-17T17:01:25.049Z,96764.50
2022-11-17T17:03:56.931Z,96759.25
2022-11-17T17:06:26.807Z,96766.81
2022-11-17T17:08:55.369Z,96778.03
2022-11-17T17:11:23.606Z,96760.00
2022-11-17T17:13:51.422Z,96766.34
2022-11-17T17:16:21.051Z,96767.47
2022-11-17T17:18:49.633Z,96768.75
2022-11-17T17:21:19.712Z,96768.91
2022-11-17T17:23:48.840Z,96782.16
2022-11-17T17:26:18.377Z,96782.63
2022-11-17T17:28:48.428Z,96792.69
2022-11-17T17:31:21.399Z,96796.34
2022-11-17T17:33:51.088Z,96797.25
2022-11-17T17:36:20.897Z,96786.34
2022-11-17T17:38:55.596Z,96777.72
2022-11-17T17:41:26.368Z,96792.97
2022-11-17T17:43:59.206Z,96797.41
2022-11-17T17:46:29.616Z,96791.53
2022-11-17T17:48:57.656Z,96788.38
2022-11-17T17:51:27.711Z,96790.84
2022-11-17T17:53:58.226Z,96794.16
2022-11-17T17:56:26.658Z,96793.91
2022-11-17T17:58:55.920Z,96790.44
2022-11-17T18:01:25.381Z,96788.91
2022-11-17T18:03:54.861Z,96786.59
2022-11-17T18:06:23.394Z,96791.72
2022-11-17T18:08:51.258Z,96807.69
2022-11-17T18:11:22.352Z,96816.16
2022-11-17T18:13:51.865Z,96823.00
2022-11-17T18:16:22.424Z,96826.41
2022-11-17T18:18:50.672Z,96831.34
2022-11-17T18:21:20.218Z,96828.41
2022-11-17T18:23:48.019Z,96831.47
2022-11-17T18:26:18.267Z,96832.66
2022-11-17T18:28:52.497Z,96821.84
2022-11-17T18:31:21.177Z,96826.66
2022-11-17T18:33:52.208Z,96846.44
2022-11-17T18:36:20.049Z,96849.31
2022-11-17T18:38:48.177Z,96844.91
2022-11-17T18:41:17.654Z,96831.88
2022-11-17T18:43:47.527Z,96850.28
2022-11-17T18:46:17.203Z,96849.25
2022-11-17T18:48:46.176Z,96857.50
2022-11-17T18:51:19.523Z,96851.72
2022-11-17T18:53:51.076Z,96861.13
2022-11-17T18:56:21.005Z,96858.53
2022-11-17T18:58:50.505Z,96860.81
2022-11-17T19:01:20.519Z,96860.06
2022-11-17T19:03:52.699Z,96844.22
2022-11-17T19:06:21.994Z,96841.75
2022-11-17T19:08:51.297Z,96834.13
2022-11-17T19:11:20.658Z,96832.91
2022-11-17T19:13:50.474Z,96842.78
2022-11-17T19:16:20.077Z,96848.56
2022-11-17T19:18:49.685Z,96855.53
2022-11-17T19:21:19.140Z,96858.09
2022-11-17T19:23:51.900Z,96874.66
2022-11-17T19:26:22.353Z,96877.47
2022-11-17T19:28:55.599Z,96876.31
2022-11-17T19:31:24.981Z,96890.44
2022-11-17T19:33:52.909Z,96894.94
2022-11-17T19:36:22.529Z,96909.13
2022-11-17T19:38:51.340Z,96910.75
2022-11-17T19:41:21.183Z,96925.31
2022-11-17T19:43:49.935Z,96930.34
2022-11-17T19:46:19.100Z,96912.72
2022-11-17T19:48:46.995Z,96877.66
2022-11-17T19:51:17.250Z,96887.75
2022-11-17T19:53:45.409Z,96872.31
2022-11-17T19:56:13.360Z,96874.09
2022-11-17T19:58:41.233Z,96872.22
2022-11-17T20:01:11.547Z,96874.84
2022-11-17T20:03:41.492Z,96876.28
2022-11-17T20:06:10.543Z,96878.28
2022-11-17T20:08:39.054Z,96880.22
2022-11-17T20:11:08.931Z,96882.66
2022-11-17T20:13:37.843Z,96886.84
2022-11-17T20:16:11.988Z,96893.16
2022-11-17T20:18:41.919Z,96899.84
2022-11-17T20:21:10.922Z,96904.22
2022-11-17T20:23:39.620Z,96899.50
2022-11-17T20:26:09.846Z,96899.88
2022-11-17T20:28:39.291Z,96909.75
2022-11-17T20:31:09.785Z,96927.00
2022-11-17T20:33:37.926Z,96910.91
2022-11-17T20:36:11.640Z,96901.47
2022-11-17T20:38:39.481Z,96912.41
2022-11-17T20:41:07.773Z,96908.53
2022-11-17T20:43:36.196Z,96923.47
2022-11-17T20:46:05.441Z,96931.72
2022-11-17T20:48:34.029Z,96925.06
2022-11-17T20:51:03.558Z,96928.19
2022-11-17T20:53:33.218Z,96941.91
2022-11-17T20:56:02.642Z,96938.00
2022-11-17T20:58:31.312Z,96937.59
2022-11-17T21:00:59.448Z,96941.94
2022-11-17T21:03:27.888Z,96930.94
2022-11-17T21:05:58.748Z,96943.09
2022-11-17T21:08:30.099Z,96949.34
2022-11-17T21:11:00.613Z,96956.44
2022-11-17T21:13:31.046Z,96958.72
2022-11-17T21:16:06.902Z,96955.19
2022-11-17T21:18:35.149Z,96959.16
2022-11-17T21:21:05.279Z,96955.66
2022-11-17T21:23:33.118Z,96954.06
2022-11-17T21:26:05.707Z,96956.41
2022-11-17T21:28:33.495Z,96954.47
2022-11-17T21:31:07.654Z,96950.13
2022-11-17T21:33:35.579Z,96961.84
2022-11-17T21:36:03.963Z,96955.94
2022-11-17T21:38:32.102Z,96961.47
2022-11-17T21:41:03.576Z,96947.41
2022-11-17T21:43:32.763Z,96936.81
2022-11-17T21:46:03.511Z,96942.31
2022-11-17T21:48:31.528Z,96948.56
2022-11-17T21:50:59.624Z,96947.81
2022-11-17T21:53:27.777Z,96953.69
2022-11-17T21:56:01.125Z,96958.38
2022-11-17T21:58:29.072Z,96956.00
2022-11-17T22:00:58.758Z,96962.59
2022-11-17T22:03:27.464Z,96957.09
2022-11-17T22:06:00.940Z,96959.56
2022-11-17T22:08:30.160Z,96958.72
2022-11-17T22:10:57.948Z,96955.22
2022-11-17T22:13:25.799Z,96956.41
2022-11-17T22:15:53.519Z,96951.72
2022-11-17T22:18:22.629Z,96956.81
2022-11-17T22:20:52.008Z,96961.53
2022-11-17T22:23:19.796Z,96964.22
2022-11-17T22:25:54.009Z,96964.16
2022-11-17T22:28:21.925Z,96968.41
2022-11-17T22:30:49.757Z,96969.19
2022-11-17T22:33:17.926Z,96967.63
2022-11-17T22:35:47.003Z,96966.44
2022-11-17T22:38:15.997Z,96973.47
2022-11-17T22:40:44.050Z,96960.13
2022-11-17T22:43:14.848Z,96976.16
2022-11-17T22:45:43.466Z,96981.31
2022-11-17T22:48:11.215Z,96968.09
2022-11-17T22:50:39.059Z,96972.69
2022-11-17T22:53:08.179Z,96971.56
2022-11-17T22:55:36.140Z,96966.38
2022-11-17T22:58:04.035Z,96971.09
2022-11-17T23:00:33.419Z,96970.31
2022-11-17T23:03:01.207Z,96971.09
2022-11-17T23:05:28.919Z,96961.78
2022-11-17T23:07:56.695Z,96975.47
2022-11-17T23:10:25.771Z,96974.38
2022-11-17T23:12:53.724Z,96973.66
2022-11-17T23:15:21.938Z,96965.78
2022-11-17T23:17:49.986Z,96966.16
2022-11-17T23:20:18.462Z,96967.31
2022-11-17T23:22:46.255Z,96959.56
2022-11-17T23:25:14.000Z,96960.31
2022-11-17T23:27:43.170Z,96962.69
2022-11-17T23:30:12.033Z,96965.06
2022-11-17T23:32:39.971Z,96955.59
2022-11-17T23:35:08.683Z,96955.19
2022-11-17T23:37:36.496Z,96954.44
2022-11-17T23:40:04.542Z,96952.88
2022-11-17T23:42:32.850Z,96960.75
2022-11-17T23:45:02.538Z,96956.44
2022-11-17T23:47:30.255Z,96959.16
2022-11-17T23:49:58.021Z,96957.16
2022-11-17T23:52:25.834Z,96955.63
2022-11-17T23:54:53.712Z,96964.19
2022-11-17T23:57:21.477Z,96960.25
2022-11-17T23:59:49.243Z,96964.66
